Time;durP1;ratioP1;P1;durP2;ratioP2;P2;SDS_P1;SDS_P2;PMS_P1;PMS_P2;Temp;Humidity;BMP_temperature;BMP_pressure;BME280_temperature;BME280_humidity;BME280_pressure;Samples;Min_cycle;Max_cycle;Signal;HPM_P1;HPM_P2
2022/01/28 00:00:41;;;;;;;;;86.50;72.50;;;;;;;;5020792;28;51533;-49
2022/01/28 00:03:25;;;;;;;;;85.25;75.75;;;;;;;;5020640;28;51154;-47
2022/01/28 00:06:10;;;;;;;;;91.25;73.75;;;;;;;;5020565;28;51276;-47
2022/01/28 00:08:54;;;;;;;;;82.00;75.00;;;;;;;;5014901;28;51370;-48
2022/01/28 00:11:39;;;;;;;;;77.50;64.50;;;;;;;;5011565;28;51255;-48
2022/01/28 00:14:47;;;;;;;;;77.00;63.75;;;;;;;;5018524;28;51137;-46
2022/01/28 00:38:33;;;;;;;;;81.00;67.00;;;;;;;;5018097;28;51213;-45
2022/01/28 00:41:17;;;;;;;;;80.75;69.00;;;;;;;;5019100;28;51443;-48
2022/01/28 00:44:02;;;;;;;;;82.00;73.25;;;;;;;;5019516;28;51170;-45
2022/01/28 00:46:46;;;;;;;;;79.00;63.00;;;;;;;;5019943;28;51141;-46
2022/01/28 00:49:31;;;;;;;;;87.00;70.00;;;;;;;;5012568;28;51649;-47
2022/01/28 00:52:15;;;;;;;;;73.50;60.50;;;;;;;;5018865;28;51546;-49
2022/01/28 00:55:00;;;;;;;;;85.00;73.50;;;;;;;;5016957;28;51192;-45
2022/01/28 00:57:44;;;;;;;;;81.00;68.75;;;;;;;;5019855;28;51434;-45
2022/01/28 01:00:29;;;;;;;;;85.50;71.50;;;;;;;;5018836;28;51366;-46
2022/01/28 01:03:14;;;;;;;;;86.75;74.25;;;;;;;;5019179;28;51230;-46
2022/01/28 01:05:58;;;;;;;;;81.75;71.75;;;;;;;;5016428;28;51557;-45
2022/01/28 01:08:42;;;;;;;;;80.25;70.25;;;;;;;;5010636;28;51220;-47
2022/01/28 01:11:28;;;;;;;;;82.50;72.75;;;;;;;;5006778;28;51280;-45
2022/01/28 01:14:12;;;;;;;;;76.75;66.25;;;;;;;;5003382;28;51197;-48
2022/01/28 01:20:18;;;;;;;;;85.25;72.50;;;;;;;;5010451;28;51090;-47
2022/01/28 01:26:09;;;;;;;;;82.50;71.50;;;;;;;;5008920;28;51177;-46
2022/01/28 01:28:53;;;;;;;;;77.75;64.75;;;;;;;;5012246;28;51202;-47
2022/01/28 01:31:41;;;;;;;;;83.50;74.25;;;;;;;;5009506;28;51741;-45
2022/01/28 01:34:26;;;;;;;;;79.75;68.50;;;;;;;;5009253;28;52612;-45
2022/01/28 01:37:12;;;;;;;;;84.75;72.75;;;;;;;;5006240;28;51197;-43
2022/01/28 01:39:57;;;;;;;;;78.00;64.75;;;;;;;;5009169;28;51110;-49
2022/01/28 01:54:21;;;;;;;;;80.50;72.00;;;;;;;;5012277;28;51110;-45
2022/01/28 01:57:06;;;;;;;;;78.00;67.50;;;;;;;;5005840;28;52817;-46
2022/01/28 01:59:50;;;;;;;;;80.25;70.25;;;;;;;;5007884;28;51502;-44
2022/01/28 02:02:35;;;;;;;;;84.50;72.75;;;;;;;;5010268;28;51156;-46
2022/01/28 02:05:19;;;;;;;;;77.50;63.25;;;;;;;;5014121;28;51178;-47
2022/01/28 02:08:06;;;;;;;;;76.75;66.50;;;;;;;;5014419;28;51172;-47
2022/01/28 02:10:50;;;;;;;;;83.25;67.50;;;;;;;;5011001;28;51134;-48
2022/01/28 02:13:35;;;;;;;;;79.75;68.25;;;;;;;;5015339;28;51137;-51
2022/01/28 02:16:20;;;;;;;;;83.50;70.50;;;;;;;;5008292;28;51456;-49
2022/01/28 02:19:05;;;;;;;;;81.75;69.25;;;;;;;;5015229;28;51295;-49
2022/01/28 02:21:52;;;;;;;;;80.00;66.50;;;;;;;;5010809;28;51605;-47
2022/01/28 02:24:44;;;;;;;;;79.50;66.50;;;;;;;;5013140;28;51259;-46
2022/01/28 02:27:28;;;;;;;;;77.50;62.75;;;;;;;;5010557;28;51024;-48
2022/01/28 02:30:13;;;;;;;;;77.50;67.00;;;;;;;;5012092;28;51141;-51
2022/01/28 02:33:09;;;;;;;;;75.25;65.00;;;;;;;;5012458;28;51067;-48
2022/01/28 02:35:53;;;;;;;;;78.00;66.25;;;;;;;;5008217;28;51100;-45
2022/01/28 02:38:37;;;;;;;;;78.75;70.75;;;;;;;;5013680;28;51190;-51
2022/01/28 02:41:25;;;;;;;;;77.00;65.50;;;;;;;;5006933;28;51173;-47
2022/01/28 02:44:21;;;;;;;;;75.75;62.25;;;;;;;;5009507;28;51167;-49
2022/01/28 02:47:05;;;;;;;;;76.50;67.00;;;;;;;;5013335;28;51204;-48
2022/01/28 02:49:49;;;;;;;;;83.00;69.50;;;;;;;;5013722;28;51202;-45
2022/01/28 02:52:48;;;;;;;;;74.25;57.75;;;;;;;;5017842;28;51528;-47
2022/01/28 02:55:38;;;;;;;;;74.75;63.25;;;;;;;;5008838;28;51146;-47
2022/01/28 02:58:24;;;;;;;;;83.25;69.00;;;;;;;;5008422;28;51450;-46
2022/01/28 03:01:12;;;;;;;;;77.25;65.25;;;;;;;;5006721;28;51273;-43
2022/01/28 03:03:59;;;;;;;;;81.50;72.00;;;;;;;;5010710;28;51218;-45
2022/01/28 03:06:43;;;;;;;;;75.50;68.75;;;;;;;;5012759;28;51411;-46
2022/01/28 03:09:37;;;;;;;;;83.75;65.75;;;;;;;;5011774;28;51101;-46
2022/01/28 03:12:31;;;;;;;;;76.00;65.25;;;;;;;;5009206;28;51139;-46
2022/01/28 03:15:20;;;;;;;;;76.50;64.25;;;;;;;;5006056;28;51365;-44
2022/01/28 03:23:38;;;;;;;;;80.00;67.25;;;;;;;;5011349;28;51211;-45
2022/01/28 03:26:27;;;;;;;;;79.25;65.50;;;;;;;;5009663;28;51193;-46
2022/01/28 03:29:11;;;;;;;;;78.00;68.25;;;;;;;;5007762;28;51159;-47
2022/01/28 03:31:56;;;;;;;;;75.75;63.75;;;;;;;;5011646;28;51192;-45
2022/01/28 03:34:40;;;;;;;;;75.25;62.00;;;;;;;;5012223;28;51058;-45
2022/01/28 03:37:25;;;;;;;;;79.75;73.25;;;;;;;;5013948;28;51040;-46
2022/01/28 03:40:09;;;;;;;;;84.00;71.75;;;;;;;;5011279;28;51068;-48
2022/01/28 03:42:54;;;;;;;;;96.50;87.25;;;;;;;;5013914;28;51145;-45
2022/01/28 03:45:38;;;;;;;;;103.00;87.50;;;;;;;;5013947;28;51075;-45
2022/01/28 03:48:22;;;;;;;;;101.00;84.50;;;;;;;;5011796;28;51454;-46
2022/01/28 03:51:07;;;;;;;;;99.75;87.00;;;;;;;;5014714;28;51094;-45
2022/01/28 03:53:51;;;;;;;;;110.75;99.00;;;;;;;;5014503;28;51134;-46
2022/01/28 03:56:35;;;;;;;;;115.50;100.00;;;;;;;;5015414;28;51324;-46
2022/01/28 03:59:20;;;;;;;;;122.25;105.00;;;;;;;;5013676;28;51161;-45
2022/01/28 04:02:06;;;;;;;;;118.75;100.50;;;;;;;;5014962;28;51253;-46
2022/01/28 04:13:52;;;;;;;;;122.00;106.00;;;;;;;;5017587;28;51486;-46
2022/01/28 04:19:39;;;;;;;;;131.75;113.50;;;;;;;;5014975;28;51162;-48
2022/01/28 04:22:25;;;;;;;;;124.75;114.25;;;;;;;;5008498;28;51187;-45
2022/01/28 04:25:09;;;;;;;;;120.50;103.75;;;;;;;;5013590;28;51117;-45
2022/01/28 04:27:54;;;;;;;;;127.25;108.50;;;;;;;;5013440;28;51206;-45
2022/01/28 04:30:38;;;;;;;;;107.75;96.00;;;;;;;;5009753;28;51123;-45
2022/01/28 04:33:23;;;;;;;;;120.75;103.75;;;;;;;;5010901;28;51177;-46
2022/01/28 04:36:10;;;;;;;;;122.25;105.75;;;;;;;;5009466;28;51192;-49
2022/01/28 04:39:02;;;;;;;;;120.25;106.75;;;;;;;;5012894;28;51718;-45
2022/01/28 04:45:15;;;;;;;;;119.25;104.00;;;;;;;;5014189;28;51086;-45
2022/01/28 04:48:21;;;;;;;;;123.00;110.00;;;;;;;;5015929;28;51110;-45
2022/01/28 05:03:22;;;;;;;;;140.00;116.75;;;;;;;;4968834;28;51192;-45
2022/01/28 05:29:41;;;;;;;;;126.00;112.25;;;;;;;;5019482;28;51199;-54
2022/01/28 05:32:25;;;;;;;;;127.25;115.00;;;;;;;;5021045;28;51069;-49
2022/01/28 05:35:09;;;;;;;;;130.00;115.75;;;;;;;;5017195;28;51134;-55
2022/01/28 05:37:54;;;;;;;;;124.00;113.00;;;;;;;;5017984;28;51062;-56
2022/01/28 05:40:38;;;;;;;;;126.50;113.75;;;;;;;;5017353;28;51007;-54
2022/01/28 05:43:22;;;;;;;;;130.75;117.00;;;;;;;;5018391;28;51158;-57
2022/01/28 05:46:08;;;;;;;;;134.25;118.50;;;;;;;;5018675;28;51227;-57
2022/01/28 05:48:52;;;;;;;;;133.00;110.00;;;;;;;;5013521;28;51279;-44
2022/01/28 05:51:36;;;;;;;;;130.00;109.00;;;;;;;;5016807;28;51148;-44
2022/01/28 05:54:21;;;;;;;;;135.00;117.25;;;;;;;;5012161;28;51126;-42
2022/01/28 05:57:05;;;;;;;;;130.25;116.00;;;;;;;;5010297;28;51289;-47
2022/01/28 05:59:50;;;;;;;;;107.00;95.75;;;;;;;;5012197;28;51026;-46
2022/01/28 06:02:34;;;;;;;;;125.50;110.50;;;;;;;;5011257;28;51214;-47
2022/01/28 06:05:18;;;;;;;;;123.50;108.25;;;;;;;;5012854;28;51527;-44
2022/01/28 06:08:03;;;;;;;;;131.25;112.00;;;;;;;;5014775;28;52595;-43
2022/01/28 06:10:47;;;;;;;;;112.50;101.25;;;;;;;;5013817;28;51176;-49
2022/01/28 06:13:31;;;;;;;;;121.25;101.50;;;;;;;;5013319;28;51095;-46
2022/01/28 06:16:17;;;;;;;;;110.00;98.00;;;;;;;;5011609;28;52663;-48
2022/01/28 06:19:01;;;;;;;;;106.25;97.25;;;;;;;;5014626;28;51184;-47
2022/01/28 06:21:45;;;;;;;;;112.00;99.50;;;;;;;;5013788;28;51126;-45
2022/01/28 06:24:30;;;;;;;;;120.00;101.00;;;;;;;;5014027;28;51741;-46
2022/01/28 06:27:14;;;;;;;;;119.50;105.75;;;;;;;;5015664;28;51275;-46
2022/01/28 06:29:59;;;;;;;;;125.75;102.25;;;;;;;;5017476;28;51488;-48
2022/01/28 06:32:43;;;;;;;;;113.75;100.25;;;;;;;;5016513;28;51135;-43
2022/01/28 06:35:28;;;;;;;;;132.50;111.00;;;;;;;;5014307;28;51161;-44
2022/01/28 06:38:13;;;;;;;;;121.00;102.50;;;;;;;;5017280;28;51083;-48
2022/01/28 06:40:57;;;;;;;;;118.75;107.00;;;;;;;;5017752;28;52165;-46
2022/01/28 06:43:41;;;;;;;;;111.00;104.75;;;;;;;;5012617;28;51170;-45
2022/01/28 06:46:26;;;;;;;;;127.00;108.75;;;;;;;;5013528;28;51157;-47
2022/01/28 06:49:10;;;;;;;;;137.00;116.75;;;;;;;;5016116;28;51233;-45
2022/01/28 06:51:55;;;;;;;;;139.00;117.75;;;;;;;;5011657;28;51390;-47
2022/01/28 06:54:39;;;;;;;;;124.25;109.50;;;;;;;;4999250;28;52092;-45
2022/01/28 06:57:23;;;;;;;;;132.25;114.00;;;;;;;;5012052;28;51213;-47
2022/01/28 07:00:09;;;;;;;;;136.50;117.75;;;;;;;;5011951;28;51174;-48
2022/01/28 07:02:53;;;;;;;;;124.25;108.25;;;;;;;;5012137;28;51140;-46
2022/01/28 07:05:38;;;;;;;;;125.50;114.75;;;;;;;;5017539;28;51455;-49
2022/01/28 07:08:24;;;;;;;;;130.00;115.00;;;;;;;;5018544;28;51218;-48
2022/01/28 07:11:09;;;;;;;;;127.75;111.00;;;;;;;;5020195;28;51283;-45
2022/01/28 07:13:53;;;;;;;;;122.75;115.25;;;;;;;;5018413;28;51580;-48
2022/01/28 07:16:37;;;;;;;;;131.00;111.75;;;;;;;;5021248;28;51011;-48
2022/01/28 07:19:22;;;;;;;;;111.50;100.75;;;;;;;;5019861;28;51190;-44
2022/01/28 07:22:06;;;;;;;;;117.75;102.25;;;;;;;;5019549;28;51208;-47
2022/01/28 07:24:51;;;;;;;;;114.25;101.75;;;;;;;;5020924;28;51016;-50
2022/01/28 07:27:35;;;;;;;;;117.25;95.50;;;;;;;;5016810;28;52157;-47
2022/01/28 07:30:19;;;;;;;;;115.75;101.50;;;;;;;;5018702;28;51153;-46
2022/01/28 07:33:07;;;;;;;;;112.00;102.25;;;;;;;;5019172;28;51115;-48
2022/01/28 07:35:51;;;;;;;;;112.00;95.75;;;;;;;;5018009;28;51189;-46
2022/01/28 07:38:35;;;;;;;;;115.25;99.50;;;;;;;;5019369;28;51668;-46
2022/01/28 07:41:20;;;;;;;;;114.25;100.25;;;;;;;;5021073;28;51157;-45
2022/01/28 07:44:05;;;;;;;;;117.25;105.00;;;;;;;;5018806;28;51165;-43
2022/01/28 07:46:49;;;;;;;;;116.75;101.50;;;;;;;;5019523;28;51189;-44
2022/01/28 07:49:34;;;;;;;;;111.75;98.00;;;;;;;;4985867;28;51314;-43
2022/01/28 07:52:18;;;;;;;;;114.50;97.00;;;;;;;;5016211;28;51058;-47
2022/01/28 07:55:03;;;;;;;;;103.25;90.00;;;;;;;;5020896;28;51286;-46
2022/01/28 07:57:47;;;;;;;;;107.50;97.75;;;;;;;;5020719;28;51234;-44
2022/01/28 08:00:31;;;;;;;;;115.50;99.50;;;;;;;;5017533;28;51525;-43
2022/01/28 08:03:16;;;;;;;;;105.75;96.25;;;;;;;;5017027;28;51103;-53
2022/01/28 08:06:00;;;;;;;;;121.50;109.25;;;;;;;;5019529;28;51587;-46
2022/01/28 08:08:45;;;;;;;;;115.00;103.75;;;;;;;;5020063;28;51210;-46
2022/01/28 08:11:29;;;;;;;;;119.25;105.75;;;;;;;;5019726;28;51139;-46
2022/01/28 08:14:14;;;;;;;;;116.25;100.75;;;;;;;;5016464;28;51085;-47
2022/01/28 08:16:59;;;;;;;;;115.00;98.50;;;;;;;;5019616;28;51176;-50
2022/01/28 08:19:43;;;;;;;;;105.25;90.25;;;;;;;;5018092;28;51418;-48
2022/01/28 08:22:27;;;;;;;;;109.75;95.50;;;;;;;;5017552;28;51257;-48
2022/01/28 08:25:12;;;;;;;;;115.50;100.00;;;;;;;;5018583;28;51545;-43
2022/01/28 08:27:56;;;;;;;;;82.75;82.75;;;;;;;;5018491;28;51335;-48
2022/01/28 08:30:41;;;;;;;;;110.50;96.50;;;;;;;;5009263;28;52242;-47
2022/01/28 08:33:25;;;;;;;;;109.25;98.25;;;;;;;;5017714;28;52292;-45
2022/01/28 08:36:11;;;;;;;;;97.00;83.50;;;;;;;;5014145;28;51415;-47
2022/01/28 08:38:56;;;;;;;;;108.75;99.25;;;;;;;;5013902;28;51446;-44
2022/01/28 08:41:42;;;;;;;;;98.50;86.50;;;;;;;;5016263;28;51289;-43
2022/01/28 08:44:27;;;;;;;;;103.75;91.50;;;;;;;;5017156;28;51483;-44
2022/01/28 08:47:11;;;;;;;;;81.00;71.25;;;;;;;;5016066;28;51552;-45
2022/01/28 08:49:55;;;;;;;;;102.00;92.75;;;;;;;;5018089;28;51201;-42
2022/01/28 08:52:40;;;;;;;;;100.00;91.25;;;;;;;;5012797;28;51408;-44
2022/01/28 08:55:24;;;;;;;;;89.75;82.50;;;;;;;;5013376;28;51265;-44
2022/01/28 08:58:09;;;;;;;;;99.75;86.75;;;;;;;;5015116;28;51194;-44
2022/01/28 09:00:54;;;;;;;;;81.75;73.25;;;;;;;;5018883;28;51608;-47
2022/01/28 09:03:38;;;;;;;;;87.75;80.00;;;;;;;;5018830;28;51137;-47
2022/01/28 09:06:22;;;;;;;;;91.25;79.00;;;;;;;;5016825;28;51215;-47
2022/01/28 09:09:07;;;;;;;;;93.00;80.25;;;;;;;;5016162;28;50988;-45
2022/01/28 09:12:07;;;;;;;;;90.25;82.75;;;;;;;;5020678;28;51078;-46
2022/01/28 09:14:51;;;;;;;;;85.75;76.50;;;;;;;;5018658;28;51920;-44
2022/01/28 09:17:36;;;;;;;;;89.75;82.75;;;;;;;;5017775;28;51168;-43
2022/01/28 09:20:20;;;;;;;;;88.75;78.25;;;;;;;;5019432;28;51125;-50
2022/01/28 09:23:05;;;;;;;;;89.25;82.00;;;;;;;;5017339;28;51075;-44
2022/01/28 09:25:49;;;;;;;;;97.00;83.25;;;;;;;;5001062;28;51522;-51
2022/01/28 09:28:33;;;;;;;;;105.00;95.00;;;;;;;;5018457;28;51046;-43
2022/01/28 09:31:18;;;;;;;;;93.75;85.50;;;;;;;;5016300;28;51151;-52
2022/01/28 09:34:02;;;;;;;;;105.00;93.00;;;;;;;;5016560;28;52053;-48
2022/01/28 09:36:46;;;;;;;;;95.00;88.50;;;;;;;;5017091;28;51204;-49
2022/01/28 09:39:33;;;;;;;;;105.25;94.00;;;;;;;;5017641;28;51233;-52
2022/01/28 09:42:19;;;;;;;;;110.00;95.50;;;;;;;;5018754;28;51595;-53
2022/01/28 09:45:07;;;;;;;;;98.25;87.00;;;;;;;;5018671;28;51093;-53
2022/01/28 09:47:53;;;;;;;;;105.75;89.25;;;;;;;;5018907;28;51538;-56
2022/01/28 09:50:37;;;;;;;;;86.75;74.50;;;;;;;;5019192;28;51186;-54
2022/01/28 09:53:21;;;;;;;;;101.25;91.75;;;;;;;;5018195;28;51135;-49
2022/01/28 09:56:06;;;;;;;;;98.50;86.00;;;;;;;;5019060;28;51039;-55
2022/01/28 09:58:50;;;;;;;;;89.00;79.00;;;;;;;;5018422;28;51142;-50
2022/01/28 10:01:35;;;;;;;;;103.00;91.00;;;;;;;;5012894;28;51169;-53
2022/01/28 10:04:20;;;;;;;;;94.75;83.00;;;;;;;;5017873;28;51556;-48
2022/01/28 10:07:10;;;;;;;;;89.00;83.50;;;;;;;;5015587;28;51099;-53
2022/01/28 10:09:56;;;;;;;;;69.25;52.25;;;;;;;;5016790;28;51145;-53
2022/01/28 10:12:50;;;;;;;;;100.50;91.25;;;;;;;;5018812;28;51035;-56
2022/01/28 10:15:34;;;;;;;;;89.50;79.50;;;;;;;;5017516;28;51067;-51
2022/01/28 10:18:18;;;;;;;;;98.25;81.25;;;;;;;;5018858;28;51043;-47
2022/01/28 10:21:13;;;;;;;;;96.00;86.00;;;;;;;;5019571;28;51022;-52
2022/01/28 10:24:02;;;;;;;;;75.00;64.00;;;;;;;;5018260;28;51118;-51
2022/01/28 10:26:55;;;;;;;;;101.50;86.75;;;;;;;;5018770;28;50962;-49
2022/01/28 10:29:42;;;;;;;;;101.75;88.25;;;;;;;;5018862;28;51492;-53
2022/01/28 10:32:28;;;;;;;;;90.50;80.75;;;;;;;;5017876;28;51065;-55
2022/01/28 10:35:26;;;;;;;;;95.50;82.75;;;;;;;;5015897;28;51182;-55
2022/01/28 10:38:21;;;;;;;;;81.00;75.50;;;;;;;;5015389;28;51611;-54
2022/01/28 10:41:07;;;;;;;;;90.75;76.25;;;;;;;;5018041;28;51485;-50
2022/01/28 10:43:53;;;;;;;;;79.25;67.25;;;;;;;;5019852;28;51106;-56
2022/01/28 10:46:38;;;;;;;;;97.50;85.50;;;;;;;;5022400;28;51118;-51
2022/01/28 10:49:35;;;;;;;;;95.50;86.00;;;;;;;;5019528;28;51094;-50
2022/01/28 10:52:29;;;;;;;;;84.25;75.75;;;;;;;;5020712;28;51170;-54
2022/01/28 10:55:17;;;;;;;;;93.75;84.25;;;;;;;;5017356;28;51169;-48
2022/01/28 10:58:12;;;;;;;;;83.00;80.00;;;;;;;;5021837;28;51078;-52
2022/01/28 11:00:57;;;;;;;;;102.00;90.25;;;;;;;;5018969;28;51230;-54
2022/01/28 11:03:42;;;;;;;;;95.00;85.75;;;;;;;;5021161;28;52468;-53
2022/01/28 11:06:26;;;;;;;;;90.50;80.50;;;;;;;;5019868;28;51431;-53
2022/01/28 11:09:11;;;;;;;;;87.25;79.00;;;;;;;;5018968;28;51514;-51
2022/01/28 11:11:56;;;;;;;;;87.25;77.50;;;;;;;;5021552;28;51416;-53
2022/01/28 11:14:41;;;;;;;;;77.25;65.25;;;;;;;;5020567;28;51158;-54
2022/01/28 11:17:25;;;;;;;;;98.25;81.75;;;;;;;;5021390;28;51204;-51
2022/01/28 11:20:10;;;;;;;;;70.25;60.75;;;;;;;;5022110;28;51603;-53
2022/01/28 11:23:13;;;;;;;;;89.00;77.50;;;;;;;;5014377;28;51587;-55
2022/01/28 11:26:07;;;;;;;;;78.50;70.75;;;;;;;;5021985;28;51055;-51
2022/01/28 11:28:53;;;;;;;;;74.25;69.00;;;;;;;;5021934;28;51340;-57
2022/01/28 11:31:45;;;;;;;;;80.50;70.50;;;;;;;;5021844;28;52159;-50
2022/01/28 11:34:31;;;;;;;;;77.50;68.00;;;;;;;;5019788;28;51102;-50
2022/01/28 11:37:15;;;;;;;;;76.50;71.00;;;;;;;;5021584;28;51114;-52
2022/01/28 11:40:14;;;;;;;;;80.00;66.50;;;;;;;;5021356;28;51215;-52
2022/01/28 11:43:16;;;;;;;;;74.00;61.25;;;;;;;;5021523;28;51165;-51
2022/01/28 11:46:08;;;;;;;;;85.00;72.75;;;;;;;;5018301;28;51137;-51
2022/01/28 11:48:55;;;;;;;;;70.00;57.25;;;;;;;;5020109;28;51079;-54
2022/01/28 11:51:41;;;;;;;;;75.75;68.50;;;;;;;;5021175;28;51036;-56
2022/01/28 11:54:33;;;;;;;;;76.75;67.25;;;;;;;;5016574;28;51370;-53
2022/01/28 11:57:18;;;;;;;;;79.75;67.00;;;;;;;;5021587;28;51452;-55
2022/01/28 12:00:18;;;;;;;;;75.25;63.75;;;;;;;;5021693;28;51076;-51
2022/01/28 12:03:15;;;;;;;;;77.25;64.25;;;;;;;;5015176;28;51086;-54
2022/01/28 12:06:07;;;;;;;;;75.75;66.00;;;;;;;;5021041;28;51040;-51
2022/01/28 12:08:51;;;;;;;;;75.50;61.75;;;;;;;;5021171;28;51728;-50
2022/01/28 12:11:42;;;;;;;;;79.75;66.50;;;;;;;;5005866;28;51423;-53
2022/01/28 12:14:44;;;;;;;;;85.25;71.75;;;;;;;;5018195;28;51186;-54
2022/01/28 12:17:32;;;;;;;;;84.00;72.75;;;;;;;;5016066;28;50994;-54
2022/01/28 12:20:22;;;;;;;;;80.50;68.00;;;;;;;;5013648;28;51200;-50
2022/01/28 12:23:09;;;;;;;;;111.75;105.50;;;;;;;;5018415;28;51282;-51
2022/01/28 12:25:56;;;;;;;;;71.50;65.75;;;;;;;;5018754;28;51441;-53
2022/01/28 12:28:41;;;;;;;;;84.25;78.50;;;;;;;;5017615;28;51130;-51
2022/01/28 12:31:27;;;;;;;;;74.50;63.00;;;;;;;;5018934;28;51125;-54
2022/01/28 12:34:11;;;;;;;;;77.25;67.75;;;;;;;;5018262;28;51220;-50
2022/01/28 12:36:57;;;;;;;;;80.25;66.75;;;;;;;;5020108;28;51708;-51
2022/01/28 12:39:51;;;;;;;;;77.50;68.00;;;;;;;;5019588;28;51477;-52
2022/01/28 12:42:39;;;;;;;;;72.25;60.50;;;;;;;;5020218;28;51051;-52
2022/01/28 12:45:23;;;;;;;;;80.00;65.00;;;;;;;;5019684;28;51260;-55
2022/01/28 12:48:08;;;;;;;;;75.25;61.25;;;;;;;;5018048;28;51782;-53
2022/01/28 12:50:53;;;;;;;;;74.75;64.25;;;;;;;;5017638;28;51130;-49
2022/01/28 12:53:43;;;;;;;;;84.00;74.00;;;;;;;;5019423;28;51086;-51
2022/01/28 12:56:34;;;;;;;;;81.00;70.25;;;;;;;;5017129;28;51552;-54
2022/01/28 12:59:18;;;;;;;;;78.25;71.75;;;;;;;;5018428;28;51174;-52
2022/01/28 13:02:03;;;;;;;;;75.75;66.00;;;;;;;;5019914;28;51657;-51
2022/01/28 13:10:45;;;;;;;;;80.75;65.25;;;;;;;;5019397;28;51145;-56
2022/01/28 13:13:29;;;;;;;;;76.75;63.25;;;;;;;;5019183;28;51070;-50
2022/01/28 13:16:14;;;;;;;;;84.50;71.75;;;;;;;;5019161;28;51365;-54
2022/01/28 13:18:58;;;;;;;;;81.00;70.25;;;;;;;;5017392;28;51082;-53
2022/01/28 13:21:45;;;;;;;;;76.50;70.75;;;;;;;;5019274;28;51439;-52
2022/01/28 13:24:29;;;;;;;;;77.75;64.50;;;;;;;;5019164;28;51145;-55
2022/01/28 13:27:13;;;;;;;;;81.25;71.75;;;;;;;;5017149;28;51218;-56
2022/01/28 13:29:58;;;;;;;;;75.50;66.25;;;;;;;;5019370;28;51126;-56
2022/01/28 13:32:45;;;;;;;;;76.75;65.50;;;;;;;;5002833;28;51189;-57
2022/01/28 13:35:32;;;;;;;;;77.00;65.00;;;;;;;;5019422;28;51171;-52
2022/01/28 13:38:19;;;;;;;;;75.00;63.50;;;;;;;;5018910;28;51668;-53
2022/01/28 13:41:20;;;;;;;;;78.75;67.75;;;;;;;;5015981;28;51492;-50
2022/01/28 13:44:18;;;;;;;;;76.25;62.50;;;;;;;;4999665;28;51193;-53
2022/01/28 13:47:03;;;;;;;;;71.50;55.00;;;;;;;;5008393;28;51440;-57
2022/01/28 13:49:55;;;;;;;;;71.25;54.50;;;;;;;;4994924;28;51452;-56
2022/01/28 13:52:46;;;;;;;;;76.00;63.00;;;;;;;;5016879;28;51567;-54
2022/01/28 13:55:31;;;;;;;;;74.50;61.50;;;;;;;;5016951;28;51130;-51
2022/01/28 13:58:15;;;;;;;;;75.00;64.75;;;;;;;;5013036;28;51178;-50
2022/01/28 14:01:07;;;;;;;;;74.25;61.50;;;;;;;;5013201;28;51151;-60
2022/01/28 14:03:54;;;;;;;;;73.50;62.00;;;;;;;;5018104;28;51093;-54
2022/01/28 14:06:38;;;;;;;;;72.75;58.25;;;;;;;;5017918;28;51182;-57
2022/01/28 14:09:25;;;;;;;;;74.00;57.25;;;;;;;;5016344;28;51117;-57
2022/01/28 14:12:12;;;;;;;;;72.75;56.75;;;;;;;;5012675;28;51593;-49
2022/01/28 14:15:08;;;;;;;;;74.25;61.00;;;;;;;;5014734;28;51044;-56
2022/01/28 14:17:53;;;;;;;;;68.00;51.25;;;;;;;;5016571;28;51218;-52
2022/01/28 14:20:37;;;;;;;;;74.50;59.25;;;;;;;;5016120;28;51169;-57
2022/01/28 14:23:22;;;;;;;;;72.50;60.00;;;;;;;;5017589;28;51126;-58
2022/01/28 14:26:09;;;;;;;;;71.00;53.75;;;;;;;;5015965;28;51208;-54
2022/01/28 14:31:37;;;;;;;;;70.00;55.25;;;;;;;;5016135;28;51196;-53
2022/01/28 14:34:23;;;;;;;;;67.50;56.75;;;;;;;;5012379;28;52116;-59
2022/01/28 14:37:07;;;;;;;;;74.75;63.50;;;;;;;;5018813;28;51194;-58
2022/01/28 14:39:51;;;;;;;;;72.75;59.75;;;;;;;;5014750;28;51137;-53
2022/01/28 14:42:36;;;;;;;;;78.75;63.50;;;;;;;;5017731;28;51589;-50
2022/01/28 14:45:20;;;;;;;;;72.50;60.75;;;;;;;;5017258;28;51122;-51
2022/01/28 14:48:04;;;;;;;;;74.00;61.25;;;;;;;;5017089;28;51194;-57
2022/01/28 14:50:49;;;;;;;;;79.00;66.00;;;;;;;;5017293;28;51519;-49
2022/01/28 14:53:33;;;;;;;;;64.25;47.25;;;;;;;;5017587;28;51538;-58
2022/01/28 14:56:17;;;;;;;;;76.75;67.50;;;;;;;;5017546;28;51160;-52
2022/01/28 14:59:02;;;;;;;;;75.00;60.00;;;;;;;;5018014;28;51011;-53
2022/01/28 15:01:47;;;;;;;;;81.00;71.25;;;;;;;;5016821;28;51411;-56
2022/01/28 15:04:31;;;;;;;;;69.25;51.50;;;;;;;;5015992;28;51119;-55
2022/01/28 15:07:18;;;;;;;;;77.75;70.00;;;;;;;;5013988;28;51602;-53
2022/01/28 15:10:03;;;;;;;;;74.25;60.50;;;;;;;;5018058;28;51173;-52
2022/01/28 15:12:47;;;;;;;;;75.75;64.25;;;;;;;;5016991;28;51466;-52
2022/01/28 15:15:32;;;;;;;;;76.75;67.00;;;;;;;;5017004;28;51483;-57
2022/01/28 15:18:16;;;;;;;;;72.00;60.00;;;;;;;;5017792;28;51621;-50
2022/01/28 15:21:01;;;;;;;;;77.50;67.00;;;;;;;;5014688;28;51172;-56
2022/01/28 15:23:45;;;;;;;;;65.75;45.25;;;;;;;;5015983;28;51280;-56
2022/01/28 15:26:30;;;;;;;;;72.00;60.75;;;;;;;;5018232;28;51514;-57
2022/01/28 15:38:01;;;;;;;;;76.75;69.25;;;;;;;;5020816;28;51215;-53
2022/01/28 15:40:45;;;;;;;;;77.25;62.25;;;;;;;;5020978;28;51092;-53
2022/01/28 15:43:30;;;;;;;;;73.00;63.75;;;;;;;;5017471;28;51130;-55
2022/01/28 15:46:14;;;;;;;;;80.50;67.00;;;;;;;;5021170;28;51181;-51
2022/01/28 15:48:58;;;;;;;;;81.25;66.75;;;;;;;;5017846;28;51236;-53
2022/01/28 15:51:43;;;;;;;;;82.25;72.00;;;;;;;;5018673;28;51413;-50
2022/01/28 15:54:27;;;;;;;;;78.75;69.50;;;;;;;;5021347;28;51201;-53
2022/01/28 15:57:12;;;;;;;;;77.25;69.00;;;;;;;;5021307;28;52508;-50
2022/01/28 15:59:56;;;;;;;;;83.00;73.50;;;;;;;;5019008;28;51413;-55
2022/01/28 16:02:41;;;;;;;;;78.50;65.25;;;;;;;;5020889;28;51088;-51
2022/01/28 16:05:25;;;;;;;;;79.50;68.50;;;;;;;;5012476;28;51263;-57
2022/01/28 16:08:10;;;;;;;;;84.25;73.50;;;;;;;;5015668;28;51626;-53
2022/01/28 16:14:26;;;;;;;;;78.00;69.50;;;;;;;;5015051;28;51002;-57
2022/01/28 16:17:26;;;;;;;;;82.50;71.00;;;;;;;;5020035;28;51483;-50
2022/01/28 16:20:11;;;;;;;;;93.50;79.75;;;;;;;;5019910;28;51076;-54
2022/01/28 16:22:55;;;;;;;;;83.00;70.50;;;;;;;;5020168;28;51531;-54
2022/01/28 16:25:40;;;;;;;;;81.75;70.75;;;;;;;;5019125;28;51163;-54
2022/01/28 16:28:24;;;;;;;;;90.25;77.00;;;;;;;;5018931;28;51565;-52
2022/01/28 16:31:09;;;;;;;;;91.00;79.50;;;;;;;;5019755;28;51091;-52
2022/01/28 16:33:55;;;;;;;;;87.25;75.25;;;;;;;;5020240;28;51256;-53
2022/01/28 16:36:39;;;;;;;;;73.25;67.75;;;;;;;;5019664;28;51089;-56
2022/01/28 16:39:24;;;;;;;;;79.25;71.25;;;;;;;;5019692;28;51368;-54
2022/01/28 16:42:09;;;;;;;;;89.50;76.00;;;;;;;;5019377;28;51210;-56
2022/01/28 16:44:56;;;;;;;;;89.00;75.50;;;;;;;;5018462;28;51148;-53
2022/01/28 16:47:42;;;;;;;;;91.75;76.75;;;;;;;;5016394;28;51658;-60
2022/01/28 16:50:26;;;;;;;;;78.00;72.00;;;;;;;;5018531;28;51478;-52
2022/01/28 16:53:14;;;;;;;;;86.50;74.50;;;;;;;;5019372;28;51186;-54
2022/01/28 16:55:59;;;;;;;;;79.75;69.25;;;;;;;;5018481;28;51246;-54
2022/01/28 16:58:43;;;;;;;;;87.25;76.75;;;;;;;;5017630;28;51429;-53
2022/01/28 17:01:28;;;;;;;;;95.25;80.75;;;;;;;;5018587;28;51133;-58
2022/01/28 17:04:12;;;;;;;;;88.00;76.00;;;;;;;;5019800;28;51188;-55
2022/01/28 17:06:58;;;;;;;;;103.00;83.00;;;;;;;;5019275;28;51401;-55
2022/01/28 17:09:51;;;;;;;;;90.75;78.75;;;;;;;;5018465;28;51516;-52
2022/01/28 17:12:40;;;;;;;;;71.25;59.50;;;;;;;;5018691;28;51510;-54
2022/01/28 17:15:24;;;;;;;;;79.75;70.75;;;;;;;;5017996;28;51114;-54
2022/01/28 17:18:09;;;;;;;;;85.00;71.00;;;;;;;;5019104;28;51212;-48
2022/01/28 17:20:57;;;;;;;;;80.75;71.75;;;;;;;;5018942;28;51089;-49
2022/01/28 17:23:41;;;;;;;;;89.50;77.50;;;;;;;;5004558;28;51437;-53
2022/01/28 17:26:25;;;;;;;;;93.75;78.50;;;;;;;;5019169;28;51149;-52
2022/01/28 17:29:10;;;;;;;;;77.75;61.75;;;;;;;;5014052;28;51182;-55
2022/01/28 17:31:54;;;;;;;;;81.50;74.25;;;;;;;;5018943;28;51141;-51
2022/01/28 17:34:39;;;;;;;;;93.00;79.75;;;;;;;;5019185;28;51193;-52
2022/01/28 17:37:23;;;;;;;;;89.25;72.50;;;;;;;;5018014;28;51244;-52
2022/01/28 17:40:08;;;;;;;;;76.25;58.00;;;;;;;;5017016;28;51164;-56
2022/01/28 17:42:52;;;;;;;;;76.25;71.00;;;;;;;;5019010;28;51078;-53
2022/01/28 17:45:37;;;;;;;;;82.25;76.50;;;;;;;;5018080;28;51031;-56
2022/01/28 17:48:21;;;;;;;;;78.00;72.75;;;;;;;;5018310;28;51377;-52
2022/01/28 17:51:06;;;;;;;;;80.75;72.75;;;;;;;;5019214;28;51241;-53
2022/01/28 17:53:50;;;;;;;;;81.25;74.75;;;;;;;;5019135;28;51003;-53
2022/01/28 17:56:34;;;;;;;;;89.25;69.50;;;;;;;;5018558;28;51141;-50